Time;durP1;ratioP1;P1;durP2;ratioP2;P2;SDS_P1;SDS_P2;PMS_P1;PMS_P2;Temp;Humidity;BMP_temperature;BMP_pressure;BME280_temperature;BME280_humidity;BME280_pressure;Samples;Min_cycle;Max_cycle;Signal;HPM_P1;HPM_P2
2022/11/25 00:02:00;;;;;;;20.38;4.00;;;;;;;10.70;100.00;100868.44;5206405;28;20018;-76
2022/11/25 00:04:35;;;;;;;27.40;3.72;;;;;;;10.72;100.00;100869.09;5206179;28;20065;-75
2022/11/25 00:07:06;;;;;;;21.92;2.88;;;;;;;10.76;100.00;100869.63;5205812;28;20030;-75
2022/11/25 00:09:36;;;;;;;29.88;3.67;;;;;;;10.76;100.00;100867.78;5206001;28;20018;-76
2022/11/25 00:12:07;;;;;;;25.92;3.80;;;;;;;10.80;100.00;100873.66;5193813;28;20060;-76
2022/11/25 00:14:37;;;;;;;26.10;3.45;;;;;;;10.80;100.00;100865.59;5204298;28;20062;-76
2022/11/25 00:17:07;;;;;;;23.73;2.78;;;;;;;10.77;100.00;100865.94;5205509;28;20025;-75
2022/11/25 00:19:38;;;;;;;15.60;2.80;;;;;;;10.84;100.00;100866.94;5205795;28;20048;-75
2022/11/25 00:22:08;;;;;;;23.90;3.60;;;;;;;10.90;100.00;100858.22;5192588;28;20033;-74
2022/11/25 00:24:39;;;;;;;21.75;3.00;;;;;;;10.88;100.00;100863.75;5206205;28;20021;-74
2022/11/25 00:27:09;;;;;;;20.75;3.20;;;;;;;10.88;100.00;100862.91;5201202;28;20104;-75
2022/11/25 00:29:40;;;;;;;20.77;3.08;;;;;;;10.88;100.00;100862.91;5197234;28;20099;-74
2022/11/25 00:32:10;;;;;;;24.48;2.97;;;;;;;10.86;100.00;100867.63;5202095;28;20028;-75
2022/11/25 00:34:41;;;;;;;22.80;3.40;;;;;;;10.86;100.00;100867.63;5205888;28;20021;-75
2022/11/25 00:37:11;;;;;;;13.05;3.20;;;;;;;10.89;100.00;100870.81;5205450;28;20394;-75
2022/11/25 00:39:42;;;;;;;21.40;3.53;;;;;;;10.89;100.00;100875.31;5205640;28;20025;-75
2022/11/25 00:45:01;;;;;;;19.63;3.40;;;;;;;10.84;100.00;100886.56;5205573;28;20277;-75
2022/11/25 00:47:31;;;;;;;18.30;2.70;;;;;;;10.78;100.00;100889.91;5205245;28;20017;-76
2022/11/25 00:50:02;;;;;;;13.52;2.50;;;;;;;10.67;100.00;100892.91;5205438;28;20022;-76
2022/11/25 00:52:35;;;;;;;17.10;3.17;;;;;;;10.55;100.00;100919.22;5205628;28;20487;-76
2022/11/25 00:55:06;;;;;;;19.17;2.88;;;;;;;10.53;100.00;100939.16;5204990;28;20479;-76
2022/11/25 00:57:37;;;;;;;20.02;3.15;;;;;;;10.43;100.00;100933.94;5204984;28;20075;-76
2022/11/25 01:00:09;;;;;;;25.10;3.63;;;;;;;10.26;100.00;100932.22;5205904;28;20026;-77
2022/11/25 01:02:40;;;;;;;18.08;3.22;;;;;;;10.11;100.00;100940.84;5202841;28;20026;-76
2022/11/25 01:05:11;;;;;;;20.30;3.95;;;;;;;10.02;100.00;100936.44;5205286;28;20099;-77
2022/11/25 01:07:41;;;;;;;15.90;2.95;;;;;;;9.87;100.00;100935.34;5204222;28;20029;-77
2022/11/25 01:10:12;;;;;;;12.20;2.65;;;;;;;9.75;100.00;100939.31;5205382;28;20033;-76
2022/11/25 01:12:46;;;;;;;14.68;2.17;;;;;;;9.63;100.00;100956.63;5205307;28;20117;-77
2022/11/25 01:15:16;;;;;;;12.05;1.65;;;;;;;9.51;100.00;100954.22;5204737;28;20064;-77
2022/11/25 01:17:47;;;;;;;11.63;2.08;;;;;;;9.47;100.00;100957.38;5204438;28;20075;-77
2022/11/25 01:20:17;;;;;;;12.13;1.80;;;;;;;9.38;100.00;100960.97;5203389;28;20455;-77
2022/11/25 01:22:48;;;;;;;10.68;2.47;;;;;;;9.29;100.00;100971.63;5205386;28;20028;-77
2022/11/25 01:25:18;;;;;;;10.15;1.85;;;;;;;9.25;100.00;100972.09;5204921;28;20056;-77
2022/11/25 01:27:49;;;;;;;14.38;2.05;;;;;;;9.18;100.00;100984.41;5194943;28;20442;-77
2022/11/25 01:30:19;;;;;;;9.13;1.58;;;;;;;9.14;100.00;100978.53;5233050;28;20014;-77
2022/11/25 01:32:49;;;;;;;12.13;2.17;;;;;;;9.08;100.00;100989.84;5201049;28;20045;-77
2022/11/25 01:35:20;;;;;;;7.07;1.50;;;;;;;8.98;100.00;100995.25;5204746;28;20104;-77
2022/11/25 01:37:50;;;;;;;14.73;1.85;;;;;;;8.98;100.00;101002.44;5204332;28;20022;-77
2022/11/25 01:40:21;;;;;;;10.38;1.65;;;;;;;8.90;100.00;101010.41;5204775;28;20112;-77
2022/11/25 01:42:51;;;;;;;6.53;1.40;;;;;;;8.88;100.00;101015.88;5204286;28;20025;-77
2022/11/25 01:45:22;;;;;;;8.65;1.83;;;;;;;8.83;100.00;101004.81;5204060;28;20036;-77
2022/11/25 01:47:59;;;;;;;12.50;2.10;;;;;;;8.75;100.00;101000.22;5204167;28;20017;-77
2022/11/25 01:50:31;;;;;;;11.43;3.03;;;;;;;8.71;100.00;101000.66;5204643;28;20140;-77
2022/11/25 01:53:06;;;;;;;15.07;1.88;;;;;;;8.63;100.00;101003.25;5204209;28;20025;-76
2022/11/25 01:55:42;;;;;;;8.30;1.70;;;;;;;8.62;100.00;100999.72;5204210;28;20029;-77
2022/11/25 01:58:20;;;;;;;7.18;1.30;;;;;;;8.56;100.00;101003.00;5204039;28;20041;-76
2022/11/25 02:00:51;;;;;;;13.75;1.80;;;;;;;8.55;100.00;100994.16;5204435;28;20028;-76
2022/11/25 02:03:26;;;;;;;11.27;1.60;;;;;;;8.53;100.00;101001.50;5204792;28;20478;-77
2022/11/25 02:06:21;;;;;;;9.15;1.10;;;;;;;8.45;100.00;100968.47;5204401;28;20562;-78
2022/11/25 02:08:57;;;;;;;6.55;1.27;;;;;;;8.39;100.00;100923.63;5204536;28;20033;-77
2022/11/25 02:11:48;;;;;;;12.00;1.58;;;;;;;8.34;100.00;100897.31;5193237;28;20059;-77
2022/11/25 02:14:21;;;;;;;4.10;0.90;;;;;;;8.29;100.00;100897.75;5201954;28;20391;-76
2022/11/25 02:17:01;;;;;;;7.65;1.25;;;;;;;8.30;100.00;100928.00;5205265;28;20025;-76
2022/11/25 02:20:03;;;;;;;4.25;1.10;;;;;;;8.30;100.00;100931.50;5204674;28;20060;-77
2022/11/25 02:22:53;;;;;;;4.57;1.02;;;;;;;8.33;100.00;100941.03;5189581;28;20041;-76
2022/11/25 02:25:45;;;;;;;9.82;1.20;;;;;;;8.26;100.00;100924.75;5203019;28;20072;-76
2022/11/25 02:28:35;;;;;;;5.97;1.35;;;;;;;8.21;100.00;100929.72;5203295;28;20100;-76
2022/11/25 02:31:22;;;;;;;6.85;1.50;;;;;;;8.22;100.00;100928.72;5200894;28;20461;-76
2022/11/25 02:33:53;;;;;;;6.67;1.50;;;;;;;8.20;100.00;100920.03;5202835;28;20026;-76
2022/11/25 02:36:23;;;;;;;7.10;1.13;;;;;;;8.20;100.00;100911.16;5204341;28;20143;-76
2022/11/25 02:38:56;;;;;;;6.05;0.90;;;;;;;8.19;100.00;100885.44;5203087;28;20068;-75
2022/11/25 02:41:31;;;;;;;3.65;1.45;;;;;;;8.17;100.00;100882.06;5204173;28;20033;-76
2022/11/25 02:44:02;;;;;;;;;;;;;;;8.15;100.00;100900.09;5204256;28;20391;-76
2022/11/25 02:46:32;;;;;;;9.02;0.88;;;;;;;8.07;100.00;100902.66;5203416;28;19916;-77
2022/11/25 02:49:03;;;;;;;5.90;0.80;;;;;;;8.00;100.00;100916.59;5203521;28;20119;-77
2022/11/25 02:51:34;;;;;;;7.93;0.82;;;;;;;7.97;100.00;100938.25;5204102;28;20025;-76
2022/11/25 02:54:14;;;;;;;3.03;0.90;;;;;;;7.95;100.00;100950.94;5203808;28;20113;-76
2022/11/25 02:56:49;;;;;;;3.00;0.90;;;;;;;8.02;100.00;100980.56;5190473;28;20021;-76
2022/11/25 02:59:20;;;;;;;3.90;1.27;;;;;;;8.07;100.00;100993.50;5203430;28;20459;-76
2022/11/25 03:01:50;;;;;;;7.10;1.33;;;;;;;8.07;100.00;101004.19;5202693;28;20684;-76
2022/11/25 03:04:21;;;;;;;4.28;1.33;;;;;;;8.06;100.00;101011.34;5202972;28;20037;-76
2022/11/25 03:06:52;;;;;;;2.72;1.00;;;;;;;8.06;100.00;101000.66;5203494;28;20028;-77
2022/11/25 03:09:23;;;;;;;6.60;1.00;;;;;;;8.04;100.00;100986.63;5203602;28;20459;-77
2022/11/25 03:14:43;;;;;;;6.80;1.15;;;;;;;7.92;100.00;101007.31;5202877;28;20025;-76
2022/11/25 03:17:14;;;;;;;4.15;1.17;;;;;;;7.89;100.00;101012.97;5202954;28;20497;-75
2022/11/25 03:19:44;;;;;;;4.85;1.90;;;;;;;7.88;100.00;101021.97;5203222;28;20036;-75
2022/11/25 03:22:15;;;;;;;4.43;0.77;;;;;;;7.88;100.00;101019.31;5203207;28;20104;-77
2022/11/25 03:24:46;;;;;;;4.72;0.98;;;;;;;7.90;100.00;101024.50;5203223;28;20026;-77
2022/11/25 03:27:16;;;;;;;3.60;1.25;;;;;;;7.91;100.00;101029.69;5201845;28;20052;-76
2022/11/25 03:29:47;;;;;;;4.63;0.93;;;;;;;7.91;100.00;101032.34;5199421;28;20079;-77
2022/11/25 03:32:17;;;;;;;2.20;1.13;;;;;;;7.90;100.00;101029.84;5207105;28;20059;-76
2022/11/25 03:34:48;;;;;;;6.28;0.75;;;;;;;7.84;100.00;101038.44;5207175;28;20036;-76
2022/11/25 03:37:18;;;;;;;4.03;1.00;;;;;;;7.76;100.00;101039.13;5206976;28;20022;-76
2022/11/25 03:39:48;;;;;;;3.85;0.60;;;;;;;7.68;100.00;101037.19;5206652;28;20274;-76
2022/11/25 03:42:19;;;;;;;3.60;0.90;;;;;;;7.58;100.00;101038.16;5207216;28;20025;-76
2022/11/25 03:44:49;;;;;;;3.03;0.77;;;;;;;7.49;100.00;101035.38;5206825;28;20489;-77
2022/11/25 03:47:20;;;;;;;2.88;0.70;;;;;;;7.38;100.00;101037.31;5206986;28;20119;-77
2022/11/25 03:49:51;;;;;;;4.88;1.02;;;;;;;7.31;100.00;101042.41;5207318;28;20117;-77
2022/11/25 03:52:22;;;;;;;4.88;1.10;;;;;;;7.26;100.00;101036.63;5206827;28;20116;-77
2022/11/25 03:54:52;;;;;;;2.72;0.60;;;;;;;7.20;100.00;101045.22;5206809;28;20034;-77
2022/11/25 03:57:23;;;;;;;5.15;0.98;;;;;;;7.15;100.00;101044.78;5206778;28;20104;-77
2022/11/25 03:59:53;;;;;;;3.50;1.20;;;;;;;7.11;100.00;101046.88;5206674;28;20681;-77
2022/11/25 04:02:23;;;;;;;5.75;1.40;;;;;;;7.05;100.00;101046.59;5205760;28;20421;-77
2022/11/25 04:04:54;;;;;;;11.82;1.50;;;;;;;7.05;100.00;101043.94;5206311;28;20021;-76
2022/11/25 04:07:24;;;;;;;6.85;1.73;;;;;;;7.04;100.00;101039.59;5206062;28;20031;-77
2022/11/25 04:09:55;;;;;;;8.57;1.70;;;;;;;7.05;100.00;101049.25;5206716;28;20057;-77
2022/11/25 04:15:15;;;;;;;4.63;1.55;;;;;;;7.09;100.00;101050.69;5199589;28;20025;-77
2022/11/25 04:17:46;;;;;;;8.77;1.52;;;;;;;7.10;100.00;101047.88;5206269;28;20026;-78
2022/11/25 04:20:16;;;;;;;11.10;1.58;;;;;;;7.08;100.00;101051.63;5206549;28;20026;-77
2022/11/25 04:22:47;;;;;;;11.30;1.80;;;;;;;7.07;100.00;101050.81;5205457;28;20044;-77
2022/11/25 04:25:17;;;;;;;9.63;2.50;;;;;;;7.08;100.00;101060.50;5206514;28;20029;-74
2022/11/25 04:27:48;;;;;;;7.88;1.60;;;;;;;7.10;100.00;101069.22;5195793;28;20033;-74
2022/11/25 04:30:18;;;;;;;9.52;2.05;;;;;;;7.14;100.00;101077.78;5202806;28;20056;-75
2022/11/25 04:32:49;;;;;;;10.63;2.13;;;;;;;7.23;100.00;101077.81;5202966;28;20022;-75
2022/11/25 04:35:19;;;;;;;11.50;2.40;;;;;;;7.27;100.00;101073.84;5205852;28;20024;-75
2022/11/25 04:37:50;;;;;;;13.82;2.58;;;;;;;7.31;100.00;101076.25;5205537;28;20398;-74
2022/11/25 04:40:20;;;;;;;10.98;2.30;;;;;;;7.37;100.00;101091.69;5205272;28;20511;-74
2022/11/25 04:42:51;;;;;;;9.90;2.20;;;;;;;7.44;100.00;101093.69;5206222;28;20034;-74
2022/11/25 04:45:21;;;;;;;15.68;2.90;;;;;;;7.43;100.00;101094.69;5205849;28;20096;-74
2022/11/25 04:47:52;;;;;;;7.30;1.88;;;;;;;7.41;100.00;101095.78;5205291;28;20029;-74
2022/11/25 04:50:23;;;;;;;15.15;2.65;;;;;;;7.37;100.00;101094.38;5206043;28;20502;-74
2022/11/25 04:52:54;;;;;;;12.57;2.22;;;;;;;7.31;100.00;101098.44;5205132;28;20030;-73
2022/11/25 04:55:24;;;;;;;14.70;2.42;;;;;;;7.22;100.00;101102.78;5205420;28;20471;-74
2022/11/25 04:57:55;;;;;;;15.70;2.42;;;;;;;7.19;100.00;101110.22;5204885;28;20127;-74
2022/11/25 05:00:25;;;;;;;16.52;2.65;;;;;;;7.14;100.00;101104.47;5205883;28;20034;-74
2022/11/25 05:02:56;;;;;;;14.77;2.58;;;;;;;7.13;100.00;101114.31;5205123;28;20021;-74
2022/11/25 05:05:26;;;;;;;15.57;2.47;;;;;;;7.09;100.00;101114.72;5205258;28;20108;-74
2022/11/25 05:07:57;;;;;;;11.93;2.63;;;;;;;7.08;100.00;101121.00;5204675;28;20473;-73
2022/11/25 05:10:27;;;;;;;15.15;3.00;;;;;;;7.08;100.00;101118.34;5205221;28;20056;-72
2022/11/25 05:12:58;;;;;;;13.85;3.08;;;;;;;7.11;100.00;101112.75;5203957;28;20151;-74
2022/11/25 05:15:28;;;;;;;15.13;3.05;;;;;;;7.14;100.00;101113.31;5204992;28;20028;-73
2022/11/25 05:17:59;;;;;;;14.07;2.65;;;;;;;7.10;100.00;101105.72;5204289;28;20021;-73
2022/11/25 05:20:29;;;;;;;15.80;2.95;;;;;;;7.10;100.00;101113.72;5205062;28;20021;-74
2022/11/25 05:23:00;;;;;;;10.93;2.47;;;;;;;7.10;100.00;101111.91;5205108;28;20048;-74
2022/11/25 05:25:30;;;;;;;17.73;3.33;;;;;;;7.08;100.00;101119.22;5203576;28;20028;-74
2022/11/25 05:28:01;;;;;;;12.85;2.70;;;;;;;7.07;100.00;101119.31;5192717;28;20026;-74
2022/11/25 05:30:31;;;;;;;8.68;2.70;;;;;;;7.10;100.00;101119.91;5203064;28;20395;-74
2022/11/25 05:33:02;;;;;;;19.08;3.13;;;;;;;7.15;100.00;101117.66;5201916;28;20017;-73
2022/11/25 05:35:32;;;;;;;11.50;3.33;;;;;;;7.20;100.00;101112.75;5204706;28;20029;-73
2022/11/25 05:38:03;;;;;;;14.38;3.05;;;;;;;7.21;100.00;101117.09;5204304;28;20051;-73
2022/11/25 05:40:33;;;;;;;21.08;3.35;;;;;;;7.18;100.00;101127.22;5204162;28;20399;-73
2022/11/25 05:43:04;;;;;;;18.08;3.45;;;;;;;7.14;100.00;101131.16;5204738;28;20159;-73
2022/11/25 05:45:38;;;;;;;8.52;3.38;;;;;;;7.09;100.00;101134.22;5203262;28;20032;-74
2022/11/25 05:48:08;;;;;;;16.20;3.13;;;;;;;7.07;100.00;101146.00;5203681;28;20021;-74
2022/11/25 05:50:40;;;;;;;13.23;3.28;;;;;;;7.04;100.00;101149.81;5204656;28;20399;-75
2022/11/25 05:53:10;;;;;;;14.40;3.10;;;;;;;7.01;100.00;101144.72;5204398;28;20083;-75
2022/11/25 05:55:40;;;;;;;10.55;3.03;;;;;;;6.94;100.00;101164.94;5204481;28;20112;-74
2022/11/25 05:58:11;;;;;;;14.65;2.85;;;;;;;6.85;100.00;101157.72;5203676;28;20429;-74
2022/11/25 06:00:42;;;;;;;10.32;2.92;;;;;;;6.78;100.00;101175.22;5204271;28;20060;-75
2022/11/25 06:03:12;;;;;;;15.77;3.60;;;;;;;6.72;100.00;101179.28;5204088;28;20083;-76
2022/11/25 06:05:43;;;;;;;20.10;4.25;;;;;;;6.70;100.00;101184.75;5202303;28;20487;-77
2022/11/25 06:08:14;;;;;;;18.15;3.53;;;;;;;6.63;100.00;101188.09;5203774;28;20100;-76
2022/11/25 06:10:44;;;;;;;20.20;3.40;;;;;;;6.54;100.00;101183.56;5203823;28;20184;-76
2022/11/25 06:13:15;;;;;;;16.33;3.72;;;;;;;6.49;100.00;101184.78;5204178;28;20067;-76
2022/11/25 06:15:46;;;;;;;14.07;3.42;;;;;;;6.51;100.00;101199.78;5203970;28;20053;-76
2022/11/25 06:18:17;;;;;;;23.27;4.32;;;;;;;6.47;100.00;101197.38;5202122;28;20029;-76
2022/11/25 06:20:57;;;;;;;15.98;4.20;;;;;;;6.47;100.00;101201.88;5203771;28;20048;-75
2022/11/25 06:23:28;;;;;;;25.05;3.95;;;;;;;6.55;100.00;101195.91;5203752;28;20221;-74
2022/11/25 06:26:08;;;;;;;15.65;4.05;;;;;;;6.54;100.00;101204.88;5203587;28;20029;-74
2022/11/25 06:28:39;;;;;;;31.40;6.53;;;;;;;6.58;100.00;101199.16;5189490;28;20029;-74
2022/11/25 06:31:13;;;;;;;28.23;9.75;;;;;;;6.55;100.00;101199.41;5203642;28;20379;-74
2022/11/25 06:33:48;;;;;;;28.35;9.50;;;;;;;6.55;100.00;101203.91;5203306;28;20026;-75
2022/11/25 06:36:20;;;;;;;20.45;6.57;;;;;;;6.57;100.00;101201.94;5203978;28;20542;-75
2022/11/25 06:38:53;;;;;;;28.77;6.95;;;;;;;6.58;100.00;101206.31;5202982;28;20475;-75
2022/11/25 06:41:23;;;;;;;27.85;5.22;;;;;;;6.57;100.00;101209.94;5202938;28;20029;-75
2022/11/25 06:43:54;;;;;;;24.25;4.38;;;;;;;6.53;100.00;101204.03;5204691;28;20018;-74
2022/11/25 06:46:24;;;;;;;18.25;5.13;;;;;;;6.49;100.00;101208.78;5204121;28;20029;-74
2022/11/25 06:48:58;;;;;;;20.17;4.32;;;;;;;6.45;100.00;101217.16;5204283;28;20021;-74
2022/11/25 06:51:28;;;;;;;12.63;3.75;;;;;;;6.41;100.00;101221.91;5203138;28;20021;-75
2022/11/25 06:53:59;;;;;;;17.38;4.65;;;;;;;6.37;100.00;101220.47;5203432;28;20021;-75
2022/11/25 06:56:29;;;;;;;17.40;4.00;;;;;;;6.34;100.00;101226.06;5203467;28;20075;-75
2022/11/25 06:59:00;;;;;;;13.93;3.22;;;;;;;6.25;100.00;101237.50;5202690;28;20383;-75
2022/11/25 07:01:30;;;;;;;23.58;4.57;;;;;;;6.18;100.00;101234.50;5202534;28;20025;-75
2022/11/25 07:04:03;;;;;;;16.55;4.30;;;;;;;6.12;100.00;101248.31;5203035;28;20112;-75
2022/11/25 07:06:34;;;;;;;15.00;4.65;;;;;;;6.10;100.00;101254.75;5203398;28;20032;-75
2022/11/25 07:09:05;;;;;;;16.05;4.38;;;;;;;6.07;100.00;101253.19;5202669;28;20414;-75
2022/11/25 07:11:38;;;;;;;21.65;4.53;;;;;;;6.09;100.00;101261.91;5203179;28;20037;-75
2022/11/25 07:14:12;;;;;;;24.48;4.75;;;;;;;6.11;100.00;101257.28;5202797;28;20017;-75
2022/11/25 07:16:44;;;;;;;18.63;5.10;;;;;;;6.11;100.00;101267.94;5201758;28;20028;-75
2022/11/25 07:19:17;;;;;;;32.25;8.38;;;;;;;6.16;100.00;101267.56;5201404;28;20032;-75
2022/11/25 07:21:47;;;;;;;24.98;8.75;;;;;;;6.20;100.00;101279.66;5203276;28;20025;-75
2022/11/25 07:24:18;;;;;;;31.02;8.68;;;;;;;6.25;100.00;101281.94;5190184;28;20022;-75
2022/11/25 07:26:48;;;;;;;25.85;5.82;;;;;;;6.32;100.00;101283.97;5196536;28;20025;-75
2022/11/25 07:29:19;;;;;;;39.75;7.47;;;;;;;6.38;100.00;101291.47;5202017;28;20014;-75
2022/11/25 07:31:50;;;;;;;31.40;6.13;;;;;;;6.43;100.00;101302.59;5198767;28;20360;-75
2022/11/25 07:34:20;;;;;;;20.63;5.32;;;;;;;6.46;100.00;101301.47;5201690;28;20430;-75
2022/11/25 07:36:50;;;;;;;18.17;6.00;;;;;;;6.49;100.00;101312.72;5200024;28;20601;-75
2022/11/25 07:39:22;;;;;;;19.17;5.35;;;;;;;6.55;100.00;101322.03;5201332;28;20029;-75
2022/11/25 07:41:53;;;;;;;23.17;6.32;;;;;;;6.57;100.00;101324.56;5202302;28;20095;-75
2022/11/25 07:44:24;;;;;;;31.10;5.07;;;;;;;6.60;100.00;101326.97;5200394;28;20438;-75
2022/11/25 07:46:54;;;;;;;27.17;4.63;;;;;;;6.62;100.00;101322.34;5201037;28;20053;-73
2022/11/25 07:49:25;;;;;;;23.55;4.50;;;;;;;6.65;100.00;101330.09;5201631;28;20097;-73
2022/11/25 07:51:58;;;;;;;21.90;5.13;;;;;;;6.75;100.00;101347.84;5201191;28;20083;-73
2022/11/25 07:54:29;;;;;;;21.65;5.20;;;;;;;6.82;100.00;101342.84;5201072;28;20060;-73
2022/11/25 07:57:00;;;;;;;27.58;6.20;;;;;;;6.91;100.00;101347.41;5201304;28;20068;-73
2022/11/25 07:59:30;;;;;;;25.50;5.97;;;;;;;6.96;100.00;101358.53;5201627;28;20025;-73
2022/11/25 08:02:01;;;;;;;25.27;5.05;;;;;;;7.08;100.00;101371.78;5201521;28;20410;-73
2022/11/25 08:04:31;;;;;;;21.02;4.90;;;;;;;7.17;100.00;101374.53;5201162;28;20025;-73
2022/11/25 08:07:02;;;;;;;21.35;5.43;;;;;;;7.27;100.00;101377.25;5200972;28;20025;-73
2022/11/25 08:09:32;;;;;;;26.20;3.83;;;;;;;7.42;100.00;101367.91;5201097;28;20029;-74
2022/11/25 08:12:03;;;;;;;26.77;4.30;;;;;;;7.57;100.00;101362.22;5203407;28;20045;-75
2022/11/25 08:14:34;;;;;;;22.90;4.85;;;;;;;7.78;100.00;101368.34;5204442;28;20379;-73
2022/11/25 08:17:04;;;;;;;25.35;4.60;;;;;;;7.99;100.00;101376.31;5202275;28;20049;-73
2022/11/25 08:19:35;;;;;;;21.08;4.93;;;;;;;8.18;100.00;101372.81;5191410;28;20021;-73
2022/11/25 08:22:05;;;;;;;14.98;3.58;;;;;;;8.26;100.00;101384.50;5204911;28;20483;-73
2022/11/25 08:24:36;;;;;;;21.85;4.25;;;;;;;8.37;100.00;101386.25;5204667;28;20049;-73
2022/11/25 08:27:06;;;;;;;15.27;3.33;;;;;;;8.55;100.00;101383.75;5203888;28;20538;-73
2022/11/25 08:29:37;;;;;;;16.67;3.38;;;;;;;8.76;100.00;101384.44;5204543;28;20022;-73
2022/11/25 08:32:08;;;;;;;19.58;3.65;;;;;;;8.89;100.00;101381.47;5201466;28;20470;-73
2022/11/25 08:34:39;;;;;;;17.17;4.40;;;;;;;8.94;100.00;101381.06;5204530;28;20029;-73
2022/11/25 08:37:09;;;;;;;18.20;3.67;;;;;;;9.19;100.00;101380.44;5204005;28;20017;-73
2022/11/25 08:39:40;;;;;;;15.25;3.35;;;;;;;9.26;100.00;101381.56;5204458;28;20498;-73
2022/11/25 08:42:10;;;;;;;23.70;3.47;;;;;;;9.32;100.00;101382.81;5204572;28;20026;-73
2022/11/25 08:44:41;;;;;;;17.38;3.20;;;;;;;9.62;100.00;101384.41;5204631;28;20456;-73
2022/11/25 08:47:11;;;;;;;16.65;3.47;;;;;;;9.59;100.00;101374.00;5203828;28;20418;-73
2022/11/25 08:49:42;;;;;;;22.52;4.18;;;;;;;9.62;100.00;101378.19;5204354;28;20502;-74
2022/11/25 08:52:12;;;;;;;21.55;3.35;;;;;;;9.95;100.00;101372.28;5202837;28;20048;-74
2022/11/25 08:54:43;;;;;;;15.77;3.50;;;;;;;10.23;100.00;101374.91;5204227;28;20041;-73
2022/11/25 08:57:14;;;;;;;22.02;4.38;;;;;;;10.16;100.00;101377.38;5203817;28;20382;-74
2022/11/25 08:59:44;;;;;;;24.45;3.28;;;;;;;10.36;100.00;101386.16;5204250;28;20430;-74
2022/11/25 09:02:16;;;;;;;21.33;3.42;;;;;;;10.59;100.00;101394.59;5203338;28;20033;-74
2022/11/25 09:04:47;;;;;;;18.50;4.25;;;;;;;10.60;100.00;101405.19;5203695;28;20530;-74
2022/11/25 09:07:17;;;;;;;21.27;4.82;;;;;;;10.72;100.00;101410.31;5203540;28;20021;-74
2022/11/25 09:09:48;;;;;;;14.07;4.55;;;;;;;10.86;100.00;101404.41;5203872;28;20387;-74
2022/11/25 09:12:19;;;;;;;13.98;3.38;;;;;;;10.69;100.00;101410.63;5203946;28;20030;-74
2022/11/25 09:14:49;;;;;;;12.25;3.35;;;;;;;10.69;100.00;101415.97;5203868;28;20021;-74
2022/11/25 09:17:20;;;;;;;18.92;3.67;;;;;;;10.74;100.00;101421.72;5203126;28;20506;-74
2022/11/25 09:19:50;;;;;;;15.40;3.20;;;;;;;10.81;100.00;101426.34;5203999;28;20479;-74
2022/11/25 09:22:21;;;;;;;16.38;3.42;;;;;;;10.87;100.00;101431.09;5202234;28;20029;-74
2022/11/25 09:24:51;;;;;;;16.45;4.50;;;;;;;10.89;100.00;101438.97;5203390;28;20075;-73
2022/11/25 09:27:22;;;;;;;19.85;4.35;;;;;;;11.08;100.00;101444.19;5196361;28;20025;-74
2022/11/25 09:29:52;;;;;;;18.42;4.00;;;;;;;11.17;100.00;101446.97;5196860;28;20079;-73
2022/11/25 09:32:22;;;;;;;15.90;3.40;;;;;;;11.27;100.00;101445.84;5204396;28;20053;-73
2022/11/25 09:34:53;;;;;;;16.88;3.90;;;;;;;11.16;100.00;101454.16;5202566;28;20374;-74
2022/11/25 09:37:23;;;;;;;23.45;3.58;;;;;;;11.07;100.00;101458.63;5191085;28;20595;-74
2022/11/25 09:39:54;;;;;;;14.50;3.83;;;;;;;10.95;100.00;101453.66;5203531;28;20033;-73
2022/11/25 09:48:55;;;;;;;12.18;3.53;;;;;;;10.75;100.00;101477.13;5190303;28;20033;-73
2022/11/25 09:51:54;;;;;;;16.52;3.72;;;;;;;10.77;100.00;101486.69;5203474;28;20498;-74
2022/11/25 09:54:46;;;;;;;11.13;3.15;;;;;;;10.81;100.00;101477.34;5203024;28;20029;-75
2022/11/25 09:57:42;;;;;;;16.58;2.97;;;;;;;10.76;100.00;101486.84;5203191;28;20368;-74
2022/11/25 10:00:17;;;;;;;16.42;2.70;;;;;;;10.80;100.00;101489.09;5192445;28;20022;-74
2022/11/25 10:03:13;;;;;;;14.57;2.97;;;;;;;10.72;100.00;101491.66;5201719;28;20034;-74
2022/11/25 10:05:55;;;;;;;13.43;3.08;;;;;;;10.82;100.00;101491.59;5190140;28;20029;-74
2022/11/25 10:08:32;;;;;;;10.07;2.50;;;;;;;10.87;100.00;101486.63;5202847;28;20029;-74
2022/11/25 10:11:23;;;;;;;7.13;2.60;;;;;;;10.94;100.00;101485.00;5203137;28;20017;-74
2022/11/25 10:14:25;;;;;;;11.88;2.83;;;;;;;10.98;100.00;101491.75;5202387;28;20052;-75
2022/11/25 10:17:14;;;;;;;13.60;2.20;;;;;;;10.99;100.00;101493.44;5190178;28;20116;-75
2022/11/25 10:20:13;;;;;;;14.85;2.30;;;;;;;11.11;100.00;101500.28;5202621;28;20041;-75
2022/11/25 10:22:46;;;;;;;9.65;2.50;;;;;;;11.18;100.00;101507.72;5202676;28;20491;-74
2022/11/25 10:25:21;;;;;;;25.50;12.38;;;;;;;11.29;100.00;101521.75;5202309;28;20078;-75
2022/11/25 10:28:00;;;;;;;12.50;2.92;;;;;;;11.31;100.00;101514.41;5202045;28;20484;-74
2022/11/25 10:30:40;;;;;;;27.83;9.02;;;;;;;11.39;100.00;101521.66;5202979;28;20025;-74
2022/11/25 10:33:27;;;;;;;34.85;12.57;;;;;;;11.50;100.00;101529.50;5199020;28;20009;-75
2022/11/25 10:36:14;;;;;;;14.40;3.75;;;;;;;11.47;100.00;101535.19;5202815;28;20119;-74
2022/11/25 10:39:16;;;;;;;14.93;5.43;;;;;;;11.57;100.00;101540.47;5188451;28;20537;-74
2022/11/25 10:42:02;;;;;;;10.52;2.28;;;;;;;11.58;100.00;101534.91;5202392;28;20112;-74
2022/11/25 10:44:34;;;;;;;13.32;3.13;;;;;;;11.56;100.00;101544.16;5200936;28;20021;-74
2022/11/25 10:47:22;;;;;;;21.13;5.00;;;;;;;11.62;100.00;101554.28;5201663;28;20051;-74
2022/11/25 10:50:23;;;;;;;8.07;2.47;;;;;;;11.49;100.00;101546.59;5202489;28;20462;-74
2022/11/25 10:52:59;;;;;;;7.30;1.98;;;;;;;11.54;100.00;101556.88;5202072;28;20029;-74
2022/11/25 10:55:32;;;;;;;9.00;1.88;;;;;;;11.35;100.00;101555.22;5202280;28;20021;-74
2022/11/25 10:58:29;;;;;;;8.55;2.20;;;;;;;11.32;100.00;101547.47;5201851;28;20423;-74
2022/11/25 11:01:20;;;;;;;12.00;2.28;;;;;;;11.47;100.00;101553.97;5202439;28;20026;-74
2022/11/25 11:04:04;;;;;;;6.75;1.77;;;;;;;11.46;100.00;101555.00;5202318;28;20020;-74
2022/11/25 11:06:39;;;;;;;8.50;2.03;;;;;;;11.49;100.00;101562.72;5202240;28;20071;-75
2022/11/25 11:09:29;;;;;;;;;;;;;;;11.49;100.00;101559.19;5201056;28;20030;-74
2022/11/25 11:12:32;;;;;;;6.95;1.77;;;;;;;11.55;100.00;101566.66;5202046;28;19935;-74
2022/11/25 11:15:22;;;;;;;11.18;2.50;;;;;;;11.62;100.00;101573.94;5179828;28;20049;-74
2022/11/25 11:17:55;;;;;;;6.82;1.40;;;;;;;11.65;100.00;101586.22;5189434;28;20140;-74
2022/11/25 11:20:28;;;;;;;10.77;2.17;;;;;;;11.71;100.00;101592.81;5202776;28;20032;-75
2022/11/25 11:23:07;;;;;;;8.32;2.03;;;;;;;11.78;100.00;101592.03;5202985;28;20029;-75
2022/11/25 11:25:41;;;;;;;8.30;2.53;;;;;;;11.84;100.00;101601.34;5202775;28;20023;-74
2022/11/25 11:28:33;;;;;;;7.90;2.30;;;;;;;11.77;100.00;101611.84;5201401;28;20025;-74
2022/11/25 11:31:32;;;;;;;9.25;2.47;;;;;;;11.71;100.00;101612.47;5199372;28;20030;-74
2022/11/25 11:34:19;;;;;;;11.52;2.55;;;;;;;11.83;100.00;101610.41;5188801;28;20022;-74
2022/11/25 11:37:05;;;;;;;14.98;2.22;;;;;;;12.00;100.00;101614.06;5201374;28;20033;-75
2022/11/25 11:40:15;;;;;;;13.70;2.03;;;;;;;12.02;100.00;101607.53;5201861;28;20060;-75
2022/11/25 11:43:01;;;;;;;11.20;1.98;;;;;;;11.92;100.00;101620.25;5199178;28;20572;-75
2022/11/25 11:46:13;;;;;;;11.13;2.33;;;;;;;11.92;100.00;101622.94;5190137;28;20017;-75
2022/11/25 11:49:05;;;;;;;12.38;2.88;;;;;;;11.98;100.00;101626.84;5193542;28;20029;-74
2022/11/25 11:51:56;;;;;;;12.40;2.40;;;;;;;12.02;100.00;101617.47;5205539;28;20037;-75
2022/11/25 11:54:33;;;;;;;10.40;2.28;;;;;;;11.96;100.00;101627.00;5205248;28;20026;-74
2022/11/25 11:57:10;;;;;;;9.77;2.50;;;;;;;11.89;100.00;101632.13;5205858;28;20104;-75
2022/11/25 12:00:03;;;;;;;14.18;2.47;;;;;;;11.76;100.00;101628.16;5205222;28;20456;-74
2022/11/25 12:02:49;;;;;;;10.95;2.63;;;;;;;11.79;100.00;101631.34;5205603;28;20052;-74
2022/11/25 12:05:23;;;;;;;9.00;2.45;;;;;;;11.83;100.00;101632.75;5205623;28;20021;-74